In Rescue
 
Open Full Screen Window  High Contrast Mode
Wind Gusting 00 knots
13
March 29, 2020 6:54 PM CDT
Weather Information
Wind Direction
  310 °
Wind Speed
  13 kt (15 mph)
Wind Gust
  00 kt (0 mph)
Altimeter
30.01 in
Visibility
10 SM
Temperature
11° C
52° F
Dewpoint
02° C
36° F
Humidity
54%
1hr Rain Fall
00.00 in.
24hr Rain Fall
00.09 in.
Sky Condition
Clear
VFR

METAR KBDH 292354Z AUTO 31013KT 10SM CLR 11/02 A3001 RMK AO2

FAA Disclaimer: The data displayed is for advisory purposes only and is not to be used for flight planning or operations.